Time;durP1;ratioP1;P1;durP2;ratioP2;P2;SDS_P1;SDS_P2;PMS_P1;PMS_P2;Temp;Humidity;BMP_temperature;BMP_pressure;BME280_temperature;BME280_humidity;BME280_pressure;Samples;Min_cycle;Max_cycle;Signal;HPM_P1;HPM_P2
2023/06/15 00:00:18;;;;;;;0.40;0.40;;;;;;;13.85;51.33;99402.50;5092937;28;20490;-81
2023/06/15 00:02:46;;;;;;;0.40;0.40;;;;;;;13.77;50.86;99398.31;5093099;28;20071;-80
2023/06/15 00:05:13;;;;;;;0.40;0.40;;;;;;;13.73;50.77;99388.25;5090825;28;20056;-81
2023/06/15 00:07:54;;;;;;;0.40;0.40;;;;;;;13.79;50.85;99409.75;5089858;28;20603;-80
2023/06/15 00:10:22;;;;;;;0.40;0.40;;;;;;;13.76;50.54;99406.72;5090996;28;20040;-82
2023/06/15 00:12:49;;;;;;;0.40;0.40;;;;;;;13.69;50.32;99406.91;5094170;28;20423;-82
2023/06/15 00:15:17;;;;;;;0.40;0.40;;;;;;;13.72;50.68;99414.53;5094175;28;20048;-80
2023/06/15 00:17:45;;;;;;;0.40;0.40;;;;;;;13.68;50.52;99412.63;5090567;28;20052;-81
2023/06/15 00:20:16;;;;;;;0.40;0.40;;;;;;;13.70;50.38;99405.88;5053722;28;20086;-81
2023/06/15 00:22:49;;;;;;;0.40;0.40;;;;;;;13.69;50.07;99401.50;5090763;28;20048;-81
2023/06/15 00:25:23;;;;;;;0.40;0.40;;;;;;;13.70;50.65;99405.88;5091713;28;20514;-81
2023/06/15 00:27:53;;;;;;;0.40;0.40;;;;;;;13.64;50.48;99406.88;5095159;28;20048;-81
2023/06/15 00:30:20;;;;;;;0.40;0.40;;;;;;;13.54;50.75;99401.34;5095096;28;20054;-80
2023/06/15 00:32:47;;;;;;;0.40;0.40;;;;;;;13.56;50.78;99408.13;5095120;28;20048;-81
2023/06/15 00:35:17;;;;;;;0.40;0.40;;;;;;;13.52;50.42;99401.59;5094515;28;20105;-81
2023/06/15 00:37:47;;;;;;;0.40;0.40;;;;;;;13.59;50.98;99406.81;5095004;28;20135;-81
2023/06/15 00:40:17;;;;;;;0.40;0.40;;;;;;;13.60;50.41;99403.03;5076736;28;20067;-80
2023/06/15 00:42:45;;;;;;;0.40;0.40;;;;;;;13.62;50.65;99409.00;5072856;28;20056;-80
2023/06/15 00:45:14;;;;;;;0.40;0.40;;;;;;;13.60;50.25;99401.16;5074876;28;20177;-81
2023/06/15 00:47:43;;;;;;;0.40;0.40;;;;;;;13.55;51.10;99405.69;5073935;28;20045;-81
2023/06/15 00:50:15;;;;;;;0.40;0.40;;;;;;;13.56;50.56;99407.31;5073075;28;20110;-81
2023/06/15 00:52:49;;;;;;;0.40;0.40;;;;;;;13.54;50.43;99401.34;5057390;28;20076;-81
2023/06/15 00:55:19;;;;;;;0.40;0.40;;;;;;;13.45;50.29;99392.84;5073187;28;20643;-81
2023/06/15 00:57:49;;;;;;;0.40;0.40;;;;;;;13.51;50.60;99413.50;5074142;28;20110;-80
2023/06/15 01:00:19;;;;;;;0.40;0.40;;;;;;;13.37;50.69;99404.97;5074134;28;20063;-81
2023/06/15 01:02:48;;;;;;;0.40;0.40;;;;;;;13.48;50.53;99407.78;5073082;28;20507;-81
2023/06/15 01:05:17;;;;;;;0.40;0.40;;;;;;;13.46;50.29;99412.63;5072814;28;20041;-82
2023/06/15 01:07:50;;;;;;;0.40;0.40;;;;;;;13.49;50.53;99415.66;5074961;28;20080;-82
2023/06/15 01:10:23;;;;;;;0.40;0.40;;;;;;;13.40;50.41;99406.34;5073255;28;20056;-82
2023/06/15 01:12:53;;;;;;;0.40;0.40;;;;;;;13.44;50.64;99411.00;5091128;28;20045;-81
2023/06/15 01:15:23;;;;;;;0.40;0.40;;;;;;;13.44;50.26;99413.72;5056465;28;20074;-82
2023/06/15 01:17:54;;;;;;;0.40;0.40;;;;;;;13.47;50.23;99412.41;5072426;28;20667;-81
2023/06/15 01:20:26;;;;;;;0.40;0.40;;;;;;;13.53;50.27;99424.09;5052131;28;20076;-81
2023/06/15 01:23:10;;;;;;;0.40;0.40;;;;;;;13.48;50.28;99411.31;5053564;28;20045;-82
2023/06/15 01:26:07;;;;;;;0.38;0.38;;;;;;;13.48;50.40;99413.22;5050652;28;20547;-80
2023/06/15 01:28:40;;;;;;;;;;;;;;;13.42;50.16;99415.03;5035213;28;20049;-82
2023/06/15 01:31:09;;;;;;;0.40;0.40;;;;;;;13.39;50.50;99413.66;5051186;28;19925;-81
2023/06/15 01:33:50;;;;;;;0.45;0.45;;;;;;;13.44;50.23;99408.31;5034119;28;20063;-82
2023/06/15 01:36:18;;;;;;;0.50;0.50;;;;;;;13.49;50.42;99423.78;5044432;28;20052;-80
2023/06/15 01:38:49;;;;;;;0.40;0.40;;;;;;;13.46;50.96;99416.16;5070701;28;20052;-81
2023/06/15 01:41:18;;;;;;;0.40;0.40;;;;;;;13.25;51.26;99393.38;5070992;28;20063;-82
2023/06/15 01:43:46;;;;;;;0.47;0.47;;;;;;;13.32;50.97;99410.31;5070494;28;20130;-82
2023/06/15 01:46:15;;;;;;;0.40;0.40;;;;;;;13.40;50.62;99422.59;5070347;28;20118;-82
2023/06/15 01:48:42;;;;;;;0.40;0.40;;;;;;;13.33;50.89;99389.44;5070209;28;20092;-83
2023/06/15 01:51:10;;;;;;;0.40;0.40;;;;;;;13.38;50.93;99394.94;5070465;28;20546;-82
2023/06/15 01:53:37;;;;;;;0.40;0.40;;;;;;;13.54;51.26;99410.28;5053594;28;20083;-82
2023/06/15 01:56:04;;;;;;;0.40;0.40;;;;;;;13.51;51.33;99402.66;5053932;28;20193;-82
2023/06/15 01:58:31;;;;;;;0.40;0.40;;;;;;;13.55;50.95;99403.00;5053235;28;20451;-82
2023/06/15 02:01:09;;;;;;;0.50;0.50;;;;;;;13.65;50.95;99411.22;5036912;28;20394;-82
2023/06/15 02:03:40;;;;;;;0.43;0.43;;;;;;;13.59;50.87;99407.63;5069811;28;20059;-83
2023/06/15 02:06:11;;;;;;;0.40;0.40;;;;;;;13.73;51.04;99421.63;5070104;28;20048;-82
2023/06/15 02:08:38;;;;;;;0.40;0.40;;;;;;;13.80;50.98;99421.41;5053232;28;20049;-82
2023/06/15 02:11:05;;;;;;;0.40;0.40;;;;;;;13.87;51.21;99417.44;5074896;28;20054;-82
2023/06/15 02:13:32;;;;;;;0.40;0.40;;;;;;;13.86;50.86;99410.34;5053779;28;20507;-82
2023/06/15 02:16:02;;;;;;;0.40;0.40;;;;;;;13.90;51.54;99409.84;5050045;28;20106;-81
2023/06/15 02:18:32;;;;;;;0.40;0.40;;;;;;;13.98;51.04;99422.97;5016432;28;20109;-81
2023/06/15 02:21:00;;;;;;;0.40;0.40;;;;;;;14.05;50.60;99418.13;5039949;28;20067;-82
2023/06/15 02:23:28;;;;;;;0.50;0.50;;;;;;;14.09;50.34;99408.41;5049770;28;20049;-81
2023/06/15 02:25:56;;;;;;;0.40;0.40;;;;;;;14.11;49.98;99400.81;5044055;28;20455;-81
2023/06/15 02:28:24;;;;;;;0.40;0.40;;;;;;;14.14;50.59;99404.91;5013475;28;20111;-82
2023/06/15 02:30:57;;;;;;;0.40;0.40;;;;;;;14.33;50.39;99430.63;5030120;28;20057;-82
2023/06/15 02:33:25;;;;;;;0.50;0.50;;;;;;;14.26;51.40;99403.66;5029688;28;20041;-81
2023/06/15 02:35:58;;;;;;;0.40;0.40;;;;;;;14.39;51.25;99428.75;5046274;28;20152;-81
2023/06/15 02:38:26;;;;;;;0.40;0.40;;;;;;;14.32;51.17;99418.91;5049489;28;20531;-81
2023/06/15 02:40:57;;;;;;;0.40;0.40;;;;;;;14.45;51.25;99422.28;5031849;28;20148;-81
2023/06/15 02:43:27;;;;;;;0.40;0.40;;;;;;;14.56;51.69;99423.19;5032671;28;20152;-82
2023/06/15 02:45:54;;;;;;;0.40;0.40;;;;;;;14.61;51.50;99428.66;5032730;28;20055;-82
2023/06/15 02:48:23;;;;;;;0.40;0.40;;;;;;;14.67;51.73;99435.78;5049864;28;20045;-81
2023/06/15 02:50:53;;;;;;;0.40;0.40;;;;;;;14.71;51.18;99426.84;5033917;28;20533;-82
2023/06/15 02:53:22;;;;;;;0.40;0.40;;;;;;;14.73;51.04;99424.69;5050474;28;20492;-82
2023/06/15 02:55:54;;;;;;;0.35;0.35;;;;;;;14.86;50.83;99433.44;5050610;28;20057;-81
2023/06/15 02:58:24;;;;;;;0.40;0.40;;;;;;;14.90;50.43;99415.56;5051718;28;20048;-81
2023/06/15 03:01:12;;;;;;;0.45;0.45;;;;;;;15.09;50.37;99430.34;5050585;28;20052;-81
2023/06/15 03:03:52;;;;;;;0.40;0.40;;;;;;;14.96;50.24;99403.63;5050918;28;20075;-82
2023/06/15 03:06:24;;;;;;;0.40;0.40;;;;;;;15.21;50.26;99432.03;5050449;28;20127;-82
2023/06/15 03:08:53;;;;;;;0.40;0.40;;;;;;;15.32;49.80;99442.69;5050376;28;20060;-82
2023/06/15 03:11:25;;;;;;;0.40;0.40;;;;;;;15.35;49.41;99425.03;5055362;28;20470;-82
2023/06/15 03:13:53;;;;;;;0.40;0.40;;;;;;;15.45;49.33;99422.34;5053571;28;20102;-82
2023/06/15 03:16:25;;;;;;;0.40;0.40;;;;;;;15.61;49.43;99443.06;5023286;28;20052;-82
2023/06/15 03:18:54;;;;;;;0.40;0.40;;;;;;;15.73;49.57;99439.34;5050113;28;20127;-83
2023/06/15 03:21:24;;;;;;;0.40;0.40;;;;;;;15.71;49.00;99422.47;5049778;28;20072;-82
2023/06/15 03:23:54;;;;;;;0.40;0.40;;;;;;;15.88;48.61;99427.69;5057159;28;20045;-81
2023/06/15 03:26:23;;;;;;;0.40;0.40;;;;;;;16.09;48.23;99439.41;5033483;28;20143;-80
2023/06/15 03:28:57;;;;;;;0.40;0.40;;;;;;;16.20;47.68;99451.94;5049773;28;20057;-82
2023/06/15 03:31:33;;;;;;;0.40;0.40;;;;;;;16.29;47.70;99430.44;5033362;28;20392;-82
2023/06/15 03:34:02;;;;;;;0.40;0.40;;;;;;;16.47;47.72;99446.25;5051153;28;20048;-82
2023/06/15 03:36:31;;;;;;;0.40;0.40;;;;;;;16.58;47.04;99442.41;5062664;28;20131;-82
2023/06/15 03:38:58;;;;;;;0.40;0.40;;;;;;;16.59;46.43;99435.09;5032921;28;20055;-82
2023/06/15 03:41:27;;;;;;;0.40;0.40;;;;;;;16.80;46.03;99449.53;5050781;28;20052;-82
2023/06/15 03:43:56;;;;;;;0.40;0.40;;;;;;;16.77;45.55;99428.25;5029707;28;20091;-83
2023/06/15 03:46:26;;;;;;;0.40;0.40;;;;;;;17.04;45.40;99449.75;5029469;28;20055;-83
2023/06/15 03:48:56;;;;;;;0.30;0.30;;;;;;;17.11;45.07;99447.53;5037637;28;20423;-82
2023/06/15 03:51:23;;;;;;;0.40;0.40;;;;;;;17.15;45.09;99445.91;5032914;28;20070;-82
2023/06/15 03:53:54;;;;;;;0.40;0.40;;;;;;;17.20;45.01;99432.25;5049461;28;20049;-82
2023/06/15 03:56:21;;;;;;;0.30;0.30;;;;;;;17.32;44.83;99431.97;5032422;28;20098;-82
2023/06/15 03:58:49;;;;;;;0.40;0.40;;;;;;;17.42;44.44;99439.25;5049574;28;20041;-82
2023/06/15 04:01:19;;;;;;;0.40;0.40;;;;;;;17.45;44.46;99427.81;5045489;28;20052;-82
2023/06/15 04:03:47;;;;;;;0.40;0.40;;;;;;;17.55;44.01;99430.50;5029492;28;20092;-82
2023/06/15 04:06:16;;;;;;;0.40;0.40;;;;;;;17.70;44.36;99441.34;5029114;28;20055;-82
2023/06/15 04:08:45;;;;;;;0.35;0.35;;;;;;;17.78;43.85;99437.19;5030486;28;20044;-83
2023/06/15 04:11:16;;;;;;;0.40;0.40;;;;;;;17.79;44.01;99422.44;5038862;28;20504;-84
2023/06/15 04:13:46;;;;;;;0.30;0.30;;;;;;;17.97;43.07;99423.72;5041149;28;20421;-84
2023/06/15 04:16:14;;;;;;;0.40;0.40;;;;;;;18.09;42.42;99428.84;5020777;28;20136;-83
2023/06/15 04:18:43;;;;;;;0.40;0.40;;;;;;;18.18;42.39;99443.53;5028851;28;20041;-82
2023/06/15 04:21:10;;;;;;;0.38;0.38;;;;;;;18.18;42.30;99430.69;5030155;28;20077;-82
2023/06/15 04:23:38;;;;;;;0.40;0.40;;;;;;;18.26;42.46;99439.38;5028831;28;20137;-82
2023/06/15 04:26:06;;;;;;;0.30;0.30;;;;;;;18.40;42.10;99449.34;5011132;28;20761;-81
2023/06/15 04:28:35;;;;;;;0.30;0.30;;;;;;;18.44;41.88;99444.16;5011044;28;20096;-82
2023/06/15 04:31:08;;;;;;;0.30;0.30;;;;;;;18.55;41.79;99434.75;5027579;28;20061;-84
2023/06/15 04:33:42;;;;;;;0.30;0.30;;;;;;;18.63;41.45;99447.81;5026722;28;20048;-81
2023/06/15 04:36:14;;;;;;;0.30;0.30;;;;;;;18.75;41.21;99444.72;5030378;28;20064;-83
2023/06/15 04:38:49;;;;;;;0.30;0.30;;;;;;;18.87;41.02;99440.81;5030557;28;20196;-82
2023/06/15 04:41:22;;;;;;;0.38;0.38;;;;;;;18.81;40.59;99421.72;5014549;28;20430;-82
2023/06/15 04:43:57;;;;;;;0.30;0.30;;;;;;;18.97;40.74;99441.50;5031000;28;20077;-82
2023/06/15 04:46:24;;;;;;;0.30;0.30;;;;;;;19.04;40.31;99433.78;5030729;28;20103;-83
2023/06/15 04:48:52;;;;;;;0.35;0.35;;;;;;;19.30;40.03;99441.69;5022626;28;20049;-82
2023/06/15 04:51:19;;;;;;;0.32;0.32;;;;;;;19.14;39.42;99410.13;5024021;28;20527;-82
2023/06/15 04:53:47;;;;;;;0.30;0.30;;;;;;;19.28;39.02;99424.75;5030919;28;20096;-83
2023/06/15 04:56:14;;;;;;;0.32;0.32;;;;;;;19.45;39.31;99440.72;5047824;28;20049;-83
2023/06/15 04:58:43;;;;;;;0.30;0.30;;;;;;;19.54;38.63;99432.66;5071920;28;20080;-83
2023/06/15 05:01:11;;;;;;;0.30;0.30;;;;;;;19.61;37.97;99433.91;5069667;28;20469;-83
2023/06/15 05:03:38;;;;;;;0.40;0.40;;;;;;;19.73;37.78;99443.66;5065823;28;20575;-83
2023/06/15 05:06:07;;;;;;;0.30;0.30;;;;;;;19.79;37.84;99439.75;5049045;28;20056;-81
2023/06/15 05:08:35;;;;;;;0.30;0.30;;;;;;;19.87;37.66;99447.28;5031444;28;20045;-82
2023/06/15 05:11:05;;;;;;;0.30;0.30;;;;;;;19.91;37.42;99435.47;5070192;28;20047;-82
2023/06/15 05:13:32;;;;;;;0.30;0.30;;;;;;;20.06;36.67;99441.84;5065419;28;20103;-82
2023/06/15 05:16:01;;;;;;;0.30;0.30;;;;;;;20.08;36.16;99442.34;5035565;28;20056;-82
2023/06/15 05:18:30;;;;;;;0.30;0.30;;;;;;;20.12;36.39;99446.13;5051490;28;20052;-83
2023/06/15 05:20:57;;;;;;;0.40;0.40;;;;;;;20.20;36.31;99439.16;5056654;28;20045;-83
2023/06/15 05:23:33;;;;;;;0.30;0.30;;;;;;;20.23;36.92;99433.91;5053371;28;20083;-82
2023/06/15 05:26:00;;;;;;;0.40;0.40;;;;;;;20.35;37.08;99447.13;5050293;28;20049;-83
2023/06/15 05:28:37;;;;;;;0.30;0.30;;;;;;;20.35;36.33;99442.44;5062487;28;20525;-83
2023/06/15 05:31:22;;;;;;;0.30;0.30;;;;;;;20.40;35.98;99444.31;5060593;28;20051;-83
2023/06/15 05:33:52;;;;;;;0.30;0.30;;;;;;;20.42;36.22;99444.00;5080634;28;20053;-80
2023/06/15 05:36:30;;;;;;;0.30;0.30;;;;;;;20.49;36.43;99436.22;5060659;28;20114;-85
2023/06/15 05:39:20;;;;;;;0.30;0.30;;;;;;;20.64;36.42;99444.22;5045481;28;20064;-84
2023/06/15 05:41:48;;;;;;;0.30;0.30;;;;;;;20.61;35.59;99425.63;5024126;28;20089;-84
2023/06/15 05:44:15;;;;;;;0.30;0.30;;;;;;;20.69;35.58;99441.41;5011671;28;20123;-85
2023/06/15 05:46:43;;;;;;;0.30;0.30;;;;;;;20.76;35.55;99440.97;5028035;28;20702;-83
2023/06/15 05:49:11;;;;;;;0.30;0.30;;;;;;;20.84;35.93;99448.53;5007904;28;20134;-83
2023/06/15 05:51:39;;;;;;;0.30;0.30;;;;;;;20.92;35.49;99442.34;4996421;28;20054;-84
2023/06/15 05:54:09;;;;;;;0.30;0.30;;;;;;;20.87;35.16;99438.91;4987553;28;20623;-83
2023/06/15 05:56:37;;;;;;;0.40;0.40;;;;;;;21.02;35.07;99452.34;4995243;28;20057;-85
2023/06/15 05:59:23;;;;;;;0.30;0.30;;;;;;;21.08;34.67;99453.84;5004183;28;20520;-84
2023/06/15 06:02:20;;;;;;;0.30;0.30;;;;;;;21.09;34.49;99447.25;5007741;28;20058;-85
2023/06/15 06:05:06;;;;;;;0.30;0.30;;;;;;;21.12;34.61;99449.41;5012338;28;20050;-83
2023/06/15 06:07:58;;;;;;;0.30;0.30;;;;;;;21.24;34.23;99448.88;5022618;28;20053;-84
2023/06/15 06:10:25;;;;;;;0.30;0.30;;;;;;;21.33;34.61;99446.25;5011276;28;20124;-83
2023/06/15 06:13:04;;;;;;;0.30;0.30;;;;;;;21.27;33.75;99425.50;5030037;28;20063;-85
2023/06/15 06:15:32;;;;;;;0.30;0.30;;;;;;;21.36;33.78;99442.88;5057697;28;20110;-85
2023/06/15 06:18:01;;;;;;;0.30;0.30;;;;;;;21.39;33.45;99432.13;5043892;28;20500;-84
2023/06/15 06:20:37;;;;;;;0.30;0.30;;;;;;;21.50;32.95;99456.66;5039498;28;20055;-84
2023/06/15 06:23:04;;;;;;;0.30;0.30;;;;;;;21.58;33.80;99453.19;5034973;28;21572;-83
2023/06/15 06:25:50;;;;;;;0.30;0.30;;;;;;;21.80;33.40;99444.19;5030451;28;20054;-83
2023/06/15 06:28:19;;;;;;;0.30;0.30;;;;;;;21.80;33.60;99433.19;5043004;28;20462;-86
2023/06/15 06:30:59;;;;;;;0.30;0.30;;;;;;;21.76;33.32;99430.25;4992059;28;20054;-85
2023/06/15 06:33:26;;;;;;;0.30;0.30;;;;;;;21.92;33.22;99449.16;5029873;28;20053;-85
2023/06/15 06:35:57;;;;;;;0.30;0.30;;;;;;;21.93;33.24;99443.38;5056155;28;20060;-85
2023/06/15 06:38:26;;;;;;;0.28;0.28;;;;;;;22.02;33.06;99436.00;5035147;28;20098;-87
2023/06/15 06:40:53;;;;;;;0.30;0.30;;;;;;;22.21;32.03;99443.31;5061169;28;20057;-82
2023/06/15 06:43:20;;;;;;;0.30;0.30;;;;;;;22.22;31.95;99431.19;5071546;28;20063;-87
2023/06/15 06:45:48;;;;;;;0.25;0.25;;;;;;;22.16;31.46;99424.16;5061878;28;20521;-86
2023/06/15 06:48:15;;;;;;;0.30;0.30;;;;;;;22.46;30.79;99450.13;5068814;28;20048;-86
2023/06/15 06:50:42;;;;;;;0.20;0.20;;;;;;;22.42;30.79;99449.13;5080239;28;20078;-86
2023/06/15 06:53:12;;;;;;;0.22;0.22;;;;;;;22.35;30.90;99435.00;5081477;28;20087;-82
2023/06/15 06:58:28;;;;;;;0.25;0.25;;;;;;;22.39;30.49;99436.81;5072164;28;20155;-85
2023/06/15 07:00:57;;;;;;;0.30;0.30;;;;;;;22.44;30.23;99444.94;5071475;28;20502;-84
2023/06/15 07:03:25;;;;;;;0.20;0.20;;;;;;;22.35;30.57;99443.25;5081019;28;20052;-87
2023/06/15 07:05:53;;;;;;;0.30;0.30;;;;;;;22.46;30.58;99459.19;5075251;28;20045;-86
2023/06/15 07:08:21;;;;;;;0.30;0.30;;;;;;;22.28;31.01;99440.91;5074685;28;20404;-82
2023/06/15 07:10:48;;;;;;;0.30;0.30;;;;;;;22.49;30.63;99447.56;5077695;28;20764;-82
2023/06/15 07:13:15;;;;;;;0.30;0.30;;;;;;;22.52;30.97;99445.31;5089501;28;20045;-83
2023/06/15 07:15:46;;;;;;;0.30;0.30;;;;;;;22.54;30.45;99443.06;5081530;28;20093;-84
2023/06/15 07:18:16;;;;;;;0.30;0.30;;;;;;;22.51;30.83;99433.50;5071868;28;20075;-83
2023/06/15 07:20:43;;;;;;;0.30;0.30;;;;;;;22.59;30.33;99434.69;5075194;28;20052;-82
2023/06/15 07:23:13;;;;;;;0.30;0.30;;;;;;;22.60;30.43;99417.84;5067400;28;20051;-84
2023/06/15 07:25:40;;;;;;;0.30;0.30;;;;;;;22.77;30.08;99444.66;5075414;28;20044;-84
2023/06/15 07:28:10;;;;;;;0.30;0.30;;;;;;;22.74;29.75;99434.28;5067028;28;20052;-83
2023/06/15 07:30:49;;;;;;;0.30;0.30;;;;;;;22.86;29.96;99430.94;5062641;28;20074;-84
2023/06/15 07:33:18;;;;;;;;;;;;;;;22.94;29.96;99432.94;5065898;28;20139;-83
2023/06/15 07:36:06;;;;;;;0.30;0.30;;;;;;;22.83;29.85;99412.31;5072492;28;19924;-86
2023/06/15 07:38:37;;;;;;;0.30;0.30;;;;;;;23.02;29.86;99428.63;5059274;28;20053;-85
2023/06/15 07:41:04;;;;;;;0.30;0.30;;;;;;;22.99;29.80;99404.47;5060703;28;20121;-88
2023/06/15 07:43:32;;;;;;;0.30;0.30;;;;;;;23.34;28.84;99420.00;5077773;28;20521;-84
2023/06/15 07:45:59;;;;;;;0.30;0.30;;;;;;;23.44;28.33;99416.13;5082116;28;20056;-84
2023/06/15 07:48:27;;;;;;;0.30;0.30;;;;;;;23.42;28.22;99401.06;5068001;28;20155;-83
2023/06/15 07:50:58;;;;;;;0.30;0.30;;;;;;;23.66;27.48;99411.66;5070143;28;20437;-84
2023/06/15 07:53:25;;;;;;;0.30;0.30;;;;;;;23.97;27.49;99422.56;5085925;28;20126;-80
2023/06/15 07:55:53;;;;;;;0.30;0.30;;;;;;;23.81;26.88;99394.69;5078577;28;20044;-84
2023/06/15 07:58:20;;;;;;;0.30;0.30;;;;;;;23.97;26.85;99422.56;5077395;28;20117;-84
2023/06/15 08:00:48;;;;;;;0.30;0.30;;;;;;;24.18;26.84;99408.94;5090743;28;20517;-81
2023/06/15 08:03:16;;;;;;;0.30;0.30;;;;;;;24.51;27.22;99402.94;5001946;28;20425;-82
2023/06/15 08:05:44;;;;;;;0.38;0.38;;;;;;;24.68;26.99;99399.34;5062325;28;20048;-83
2023/06/15 08:08:12;;;;;;;0.40;0.40;;;;;;;24.91;26.58;99416.47;5080541;28;20075;-83
2023/06/15 08:13:28;;;;;;;0.40;0.40;;;;;;;24.98;25.01;99395.50;5093980;28;20053;-83
2023/06/15 08:15:56;;;;;;;0.40;0.40;;;;;;;25.17;24.62;99397.06;5052154;28;20053;-86
2023/06/15 08:18:25;;;;;;;0.40;0.40;;;;;;;25.43;24.56;99405.22;5084123;28;20048;-84
2023/06/15 08:20:53;;;;;;;0.40;0.40;;;;;;;25.35;24.70;99397.81;5072822;28;20044;-85
2023/06/15 08:23:20;;;;;;;0.40;0.40;;;;;;;25.61;25.03;99401.22;5090656;28;20506;-87
2023/06/15 08:25:47;;;;;;;0.40;0.40;;;;;;;25.84;25.38;99398.94;5090133;28;20068;-86
2023/06/15 08:28:15;;;;;;;0.40;0.40;;;;;;;25.85;24.20;99378.47;5090218;28;20044;-87
2023/06/15 08:30:42;;;;;;;0.40;0.40;;;;;;;25.83;24.03;99372.44;5090155;28;20059;-85
2023/06/15 08:33:12;;;;;;;0.40;0.40;;;;;;;26.14;23.24;99393.34;5072013;28;20051;-86
2023/06/15 08:35:39;;;;;;;0.40;0.40;;;;;;;26.20;23.46;99389.22;5086988;28;20493;-87
2023/06/15 08:38:07;;;;;;;0.40;0.40;;;;;;;26.22;23.41;99375.88;5070391;28;20055;-87
2023/06/15 08:40:34;;;;;;;0.40;0.40;;;;;;;26.48;23.27;99396.94;5070045;28;20107;-86
2023/06/15 08:43:03;;;;;;;0.40;0.40;;;;;;;26.53;23.17;99364.34;5068945;28;20091;-87
2023/06/15 08:45:37;;;;;;;0.40;0.40;;;;;;;27.02;22.67;99383.81;5053028;28;20135;-86
2023/06/15 08:48:05;;;;;;;0.30;0.30;;;;;;;27.36;22.23;99384.53;5059089;28;20067;-86
2023/06/15 08:50:39;;;;;;;0.30;0.30;;;;;;;27.50;22.05;99389.72;5094241;28;20298;-86
2023/06/15 08:53:08;;;;;;;0.30;0.30;;;;;;;27.08;21.52;99362.22;5076055;28;20071;-86
2023/06/15 08:55:37;;;;;;;0.30;0.30;;;;;;;27.00;22.59;99388.06;5093747;28;20431;-87
2023/06/15 08:58:05;;;;;;;0.30;0.30;;;;;;;26.86;22.76;99377.31;5094289;28;20052;-86
2023/06/15 09:00:36;;;;;;;0.40;0.40;;;;;;;27.03;22.83;99379.06;5093105;28;20067;-86
2023/06/15 09:03:07;;;;;;;0.30;0.30;;;;;;;27.54;21.87;99367.66;5093144;28;20048;-87
2023/06/15 09:05:37;;;;;;;0.30;0.30;;;;;;;27.92;21.97;99347.00;5092852;28;20070;-85
2023/06/15 09:08:07;;;;;;;0.40;0.40;;;;;;;28.50;21.66;99355.78;5093420;28;20058;-86
2023/06/15 09:10:38;;;;;;;0.40;0.40;;;;;;;28.69;21.20;99336.47;5097127;28;20093;-85
2023/06/15 09:13:05;;;;;;;0.40;0.40;;;;;;;29.08;21.29;99358.06;5104223;28;20043;-88
2023/06/15 09:15:36;;;;;;;0.40;0.40;;;;;;;29.25;21.01;99352.13;5072413;28;20056;-86
2023/06/15 09:18:03;;;;;;;0.40;0.40;;;;;;;29.43;20.50;99354.53;5040319;28;20110;-85
2023/06/15 09:20:37;;;;;;;0.40;0.40;;;;;;;29.57;19.88;99375.09;5074542;28;20044;-86
2023/06/15 09:23:09;;;;;;;0.40;0.40;;;;;;;29.59;20.02;99360.81;5073540;28;20084;-86
2023/06/15 09:25:41;;;;;;;0.40;0.40;;;;;;;29.46;20.24;99351.00;5055699;28;20055;-85
2023/06/15 09:28:08;;;;;;;0.40;0.40;;;;;;;29.81;20.44;99359.34;5055658;28;20044;-87
2023/06/15 09:30:38;;;;;;;0.40;0.40;;;;;;;29.76;19.67;99332.63;5073462;28;20054;-86
2023/06/15 09:33:17;;;;;;;0.40;0.40;;;;;;;30.08;19.81;99351.13;5073376;28;20045;-87
2023/06/15 09:36:23;;;;;;;0.40;0.40;;;;;;;30.57;19.82;99356.88;5028205;28;20143;-87
2023/06/15 09:38:54;;;;;;;0.40;0.40;;;;;;;30.96;19.86;99345.63;4975403;28;20050;-86
2023/06/15 09:41:22;;;;;;;0.40;0.40;;;;;;;30.74;19.09;99344.47;4975261;28;20553;-85
2023/06/15 09:43:50;;;;;;;0.40;0.40;;;;;;;30.74;19.35;99343.63;4975098;28;20058;-87
2023/06/15 09:46:20;;;;;;;0.40;0.40;;;;;;;30.74;19.11;99344.47;4975057;28;20508;-86
2023/06/15 09:48:47;;;;;;;0.30;0.30;;;;;;;30.93;18.98;99334.44;4982146;28;20046;-86
2023/06/15 09:51:16;;;;;;;0.40;0.40;;;;;;;31.19;18.38;99340.00;4994414;28;20049;-86
2023/06/15 09:53:51;;;;;;;0.40;0.40;;;;;;;31.51;18.59;99334.94;4995410;28;20235;-86
2023/06/15 09:56:19;;;;;;;0.40;0.40;;;;;;;31.12;18.94;99319.59;5010462;28;20204;-87
2023/06/15 09:59:02;;;;;;;0.40;0.40;;;;;;;31.64;18.66;99343.09;4980633;28;20060;-87
2023/06/15 10:01:34;;;;;;;0.40;0.40;;;;;;;32.19;18.31;99342.59;5010412;28;20073;-87
2023/06/15 10:04:03;;;;;;;0.40;0.40;;;;;;;31.75;18.43;99324.47;4978154;28;20156;-87
2023/06/15 10:06:33;;;;;;;0.40;0.40;;;;;;;31.73;18.66;99318.50;5010620;28;20060;-87
2023/06/15 10:09:06;;;;;;;0.30;0.30;;;;;;;31.89;18.22;99321.88;5016759;28;20055;-86
2023/06/15 10:11:35;;;;;;;0.30;0.30;;;;;;;32.43;17.75;99330.88;5104647;28;20549;-86
2023/06/15 10:14:14;;;;;;;0.30;0.30;;;;;;;32.53;17.77;99326.59;5091649;28;20044;-86
2023/06/15 10:16:45;;;;;;;0.30;0.30;;;;;;;32.45;17.49;99310.94;5092797;28;20055;-86
2023/06/15 10:19:12;;;;;;;0.40;0.40;;;;;;;32.85;17.61;99321.31;5091441;28;20418;-87
2023/06/15 10:21:42;;;;;;;0.40;0.40;;;;;;;33.16;17.85;99317.16;5091247;28;20494;-87
2023/06/15 10:24:13;;;;;;;0.40;0.40;;;;;;;33.70;17.20;99300.69;5091511;28;20056;-86
2023/06/15 10:26:43;;;;;;;0.30;0.30;;;;;;;33.94;16.93;99312.38;5092070;28;20059;-87
2023/06/15 10:29:16;;;;;;;0.38;0.38;;;;;;;33.66;16.63;99292.28;5092534;28;20047;-87
2023/06/15 10:31:54;;;;;;;0.40;0.40;;;;;;;33.76;16.39;99315.91;5090848;28;20142;-88
2023/06/15 10:34:30;;;;;;;0.40;0.40;;;;;;;33.58;16.51;99310.25;5092352;28;20048;-86
2023/06/15 10:37:14;;;;;;;0.40;0.40;;;;;;;33.63;16.54;99309.06;5092235;28;20044;-86
2023/06/15 10:39:44;;;;;;;;;;;;;;;34.01;16.58;99307.63;5075099;28;20070;-87
2023/06/15 10:42:26;;;;;;;0.38;0.38;;;;;;;34.40;15.87;99306.13;5090216;28;19927;-86
2023/06/15 10:44:53;;;;;;;0.30;0.30;;;;;;;34.45;16.01;99306.53;5091978;28;20131;-87
2023/06/15 10:47:21;;;;;;;0.40;0.40;;;;;;;34.82;15.78;99294.16;5077639;28;20510;-88
2023/06/15 10:49:53;;;;;;;0.30;0.30;;;;;;;34.84;15.68;99283.34;5087924;28;20528;-87
2023/06/15 10:52:21;;;;;;;0.30;0.30;;;;;;;34.60;15.93;99272.94;5092294;28;20048;-87
2023/06/15 10:54:49;;;;;;;0.40;0.40;;;;;;;35.04;15.47;99282.91;5092013;28;20060;-85
2023/06/15 10:57:20;;;;;;;0.30;0.30;;;;;;;35.01;15.02;99297.75;5057499;28;20510;-86
2023/06/15 10:59:49;;;;;;;0.40;0.40;;;;;;;35.67;14.81;99298.00;5057154;28;20040;-87
2023/06/15 11:02:31;;;;;;;0.30;0.30;;;;;;;35.81;15.13;99297.16;5074266;28;20071;-86
2023/06/15 11:05:12;;;;;;;0.30;0.30;;;;;;;35.24;15.44;99298.13;5091849;28;20056;-87
2023/06/15 11:07:43;;;;;;;0.30;0.30;;;;;;;35.34;15.06;99282.47;5092092;28;20055;-87
2023/06/15 11:10:13;;;;;;;0.30;0.30;;;;;;;35.25;15.22;99270.88;5101550;28;20078;-84
2023/06/15 11:12:45;;;;;;;0.30;0.30;;;;;;;35.63;14.68;99288.81;5097507;28;20498;-87
2023/06/15 11:15:16;;;;;;;0.30;0.30;;;;;;;35.63;14.80;99260.75;5091473;28;20048;-85
2023/06/15 11:17:57;;;;;;;0.30;0.30;;;;;;;36.07;14.24;99267.72;5058035;28;20068;-85
2023/06/15 11:20:42;;;;;;;0.40;0.40;;;;;;;36.49;14.50;99285.53;5073827;28;20048;-85
2023/06/15 11:23:11;;;;;;;0.30;0.30;;;;;;;36.49;14.33;99274.28;5092522;28;20052;-86
2023/06/15 11:25:46;;;;;;;0.40;0.40;;;;;;;36.63;13.91;99270.59;5075102;28;20044;-86
2023/06/15 11:28:20;;;;;;;0.30;0.30;;;;;;;36.96;13.82;99266.25;5091570;28;20052;-87
2023/06/15 11:31:06;;;;;;;0.30;0.30;;;;;;;36.62;14.37;99272.59;5075669;28;20048;-87
2023/06/15 11:33:36;;;;;;;0.32;0.32;;;;;;;37.07;13.80;99274.59;5056441;28;20468;-87
2023/06/15 11:36:06;;;;;;;0.35;0.35;;;;;;;37.01;14.31;99260.16;5082506;28;20132;-86
2023/06/15 11:38:34;;;;;;;0.32;0.32;;;;;;;36.80;13.94;99258.38;5052962;28;20048;-87
2023/06/15 11:41:06;;;;;;;0.30;0.30;;;;;;;36.69;13.96;99262.50;5072992;28;20048;-87
2023/06/15 11:43:45;;;;;;;0.30;0.30;;;;;;;36.51;14.27;99252.16;5079737;28;20052;-87
2023/06/15 11:46:17;;;;;;;0.30;0.30;;;;;;;36.88;14.02;99251.47;5089873;28;20434;-86
2023/06/15 11:48:46;;;;;;;0.30;0.30;;;;;;;36.81;14.22;99247.94;5081679;28;20072;-87
2023/06/15 11:51:15;;;;;;;0.38;0.38;;;;;;;37.12;13.80;99273.34;5069402;28;20094;-86
2023/06/15 11:54:02;;;;;;;0.30;0.30;;;;;;;37.29;14.00;99259.09;5070781;28;20082;-86
2023/06/15 11:56:29;;;;;;;0.30;0.30;;;;;;;37.03;14.11;99254.94;5070224;28;20049;-87